Time;durP1;ratioP1;P1;durP2;ratioP2;P2;SDS_P1;SDS_P2;PMS_P1;PMS_P2;Temp;Humidity;BMP_temperature;BMP_pressure;BME280_temperature;BME280_humidity;BME280_pressure;Samples;Min_cycle;Max_cycle;Signal;HPM_P1;HPM_P2
2022/03/19 00:01:18;;;;;;;7.57;4.00;;;;;;;4.92;48.01;102483.88;10311760;28;20050;-75
2022/03/19 00:06:21;;;;;;;10.45;4.13;;;;;;;4.84;48.28;102478.63;10311569;28;20061;-75
2022/03/19 00:11:24;;;;;;;8.40;3.95;;;;;;;4.76;48.56;102479.47;10294644;28;20056;-75
2022/03/19 00:16:25;;;;;;;9.45;4.10;;;;;;;4.66;48.96;102484.59;10310740;28;20136;-75
2022/03/19 00:21:28;;;;;;;9.13;4.57;;;;;;;4.57;49.37;102487.16;10311020;28;20054;-75
2022/03/19 00:26:30;;;;;;;11.50;5.03;;;;;;;4.45;49.47;102479.31;10311580;28;20046;-75
2022/03/19 00:31:31;;;;;;;7.63;4.13;;;;;;;4.39;49.74;102484.44;10310639;28;20049;-75
2022/03/19 00:36:34;;;;;;;10.40;4.05;;;;;;;4.34;49.78;102491.34;10293729;28;20042;-75
2022/03/19 00:41:54;;;;;;;11.07;4.50;;;;;;;4.26;50.28;102487.84;10310319;28;20148;-75
2022/03/19 00:46:56;;;;;;;8.73;4.25;;;;;;;4.25;50.16;102485.25;10292869;28;20134;-75
2022/03/19 00:51:58;;;;;;;12.18;4.38;;;;;;;4.23;50.11;102476.59;10309864;28;20057;-75
2022/03/19 00:57:00;;;;;;;8.35;4.28;;;;;;;4.21;50.32;102479.16;10299050;28;20530;-75
2022/03/19 01:02:02;;;;;;;7.97;4.15;;;;;;;4.12;50.42;102476.50;10314789;28;20054;-75
2022/03/19 01:07:04;;;;;;;12.35;4.30;;;;;;;4.12;50.37;102473.03;10332632;28;20695;-75
2022/03/19 01:12:06;;;;;;;10.02;4.22;;;;;;;4.07;50.53;102475.59;10316040;28;20714;-75
2022/03/19 01:17:09;;;;;;;11.48;4.30;;;;;;;3.97;50.37;102478.97;10309106;28;20054;-75
2022/03/19 01:22:11;;;;;;;11.77;4.10;;;;;;;3.97;51.07;102468.63;10308935;28;20473;-75
2022/03/19 01:27:12;;;;;;;10.25;4.75;;;;;;;4.03;50.43;102471.25;10292905;28;20219;-75
2022/03/19 01:32:14;;;;;;;8.77;4.63;;;;;;;3.97;50.76;102473.78;10307592;28;20161;-75
2022/03/19 01:37:16;;;;;;;10.05;4.13;;;;;;;3.88;50.85;102465.97;10308778;28;20181;-75
2022/03/19 01:42:29;;;;;;;13.45;4.68;;;;;;;3.88;51.39;102468.56;10306913;28;20057;-74
2022/03/19 01:47:33;;;;;;;11.50;4.25;;;;;;;3.89;50.88;102459.94;10307218;28;20082;-74
2022/03/19 01:52:35;;;;;;;9.98;4.13;;;;;;;3.79;50.87;102458.09;10290649;28;20061;-73
2022/03/19 01:57:41;;;;;;;8.50;4.43;;;;;;;3.65;51.44;102455.41;10317950;28;20074;-75
2022/03/19 02:02:45;;;;;;;9.68;4.35;;;;;;;3.68;51.40;102449.38;10330139;28;20101;-74
2022/03/19 02:07:49;;;;;;;10.48;4.10;;;;;;;3.71;51.36;102442.50;10297535;28;20042;-74
2022/03/19 02:12:52;;;;;;;11.43;4.05;;;;;;;3.67;51.34;102438.16;10306083;28;20439;-75
2022/03/19 02:17:54;;;;;;;10.30;4.00;;;;;;;3.68;51.56;102433.88;10305586;28;20128;-74
2022/03/19 02:28:17;;;;;;;9.15;3.90;;;;;;;3.59;51.99;102426.00;10305856;28;20082;-74
2022/03/19 02:33:18;;;;;;;8.68;3.85;;;;;;;3.52;51.70;102419.03;10305514;28;20540;-74
2022/03/19 02:38:20;;;;;;;9.35;3.80;;;;;;;3.48;52.13;102410.38;10306320;28;20050;-74
2022/03/19 02:43:22;;;;;;;11.55;4.30;;;;;;;3.49;52.34;102411.25;10305609;28;20589;-74
2022/03/19 02:48:24;;;;;;;8.20;4.00;;;;;;;3.43;52.46;102406.03;10287438;28;20112;-74
2022/03/19 02:53:25;;;;;;;9.40;4.13;;;;;;;3.36;52.40;102404.25;10288512;28;20170;-74
2022/03/19 02:58:27;;;;;;;9.02;3.95;;;;;;;3.26;52.63;102397.25;10318922;28;20055;-74
2022/03/19 03:03:29;;;;;;;9.90;3.80;;;;;;;3.28;52.73;102401.59;10313484;28;20058;-75
2022/03/19 03:08:31;;;;;;;8.65;3.78;;;;;;;3.21;52.62;102398.94;10310331;28;20054;-74
2022/03/19 03:13:33;;;;;;;8.73;3.88;;;;;;;3.18;53.28;102398.91;10297955;28;20062;-74
2022/03/19 03:18:34;;;;;;;11.85;4.47;;;;;;;3.22;52.94;102390.31;10312062;28;20778;-74
2022/03/19 03:23:36;;;;;;;11.32;4.32;;;;;;;3.12;53.34;102383.31;10311112;28;20058;-74
2022/03/19 03:28:38;;;;;;;12.27;4.18;;;;;;;3.05;53.25;102388.44;10312143;28;20082;-74
2022/03/19 03:33:40;;;;;;;13.98;4.30;;;;;;;3.07;53.40;102385.03;10312835;28;20480;-74
2022/03/19 03:38:42;;;;;;;9.05;4.07;;;;;;;2.96;53.42;102390.06;10311451;28;20046;-74
2022/03/19 03:43:45;;;;;;;10.95;4.15;;;;;;;2.98;53.58;102378.91;10310766;28;20058;-74
2022/03/19 03:48:47;;;;;;;7.20;3.80;;;;;;;3.00;53.65;102373.75;10311178;28;20579;-74
2022/03/19 03:53:49;;;;;;;16.58;4.53;;;;;;;2.92;54.20;102376.25;10311980;28;20166;-74
2022/03/19 03:58:51;;;;;;;10.77;4.10;;;;;;;2.95;54.07;102371.09;10321688;28;20472;-75
2022/03/19 04:03:53;;;;;;;11.10;4.28;;;;;;;2.99;54.14;102365.13;10311901;28;20058;-75
2022/03/19 04:08:55;;;;;;;8.57;4.13;;;;;;;3.00;54.32;102359.13;10327572;28;20046;-74
2022/03/19 04:13:59;;;;;;;10.32;3.88;;;;;;;2.94;54.53;102355.59;10310018;28;20496;-75
2022/03/19 04:19:03;;;;;;;12.48;4.45;;;;;;;2.85;54.45;102348.59;10303004;28;20463;-73
2022/03/19 04:24:05;;;;;;;7.93;4.20;;;;;;;2.71;54.69;102355.34;10304497;28;20094;-73
2022/03/19 04:29:07;;;;;;;8.52;4.05;;;;;;;2.55;55.03;102350.88;10309575;28;20050;-74
2022/03/19 04:34:08;;;;;;;12.63;4.32;;;;;;;2.46;55.09;102349.91;10310009;28;20688;-74
2022/03/19 04:39:11;;;;;;;8.13;4.43;;;;;;;2.36;55.23;102348.91;10310965;28;20165;-74
2022/03/19 04:44:13;;;;;;;9.93;4.60;;;;;;;2.25;55.70;102349.63;10310387;28;20969;-74
2022/03/19 04:49:14;;;;;;;9.25;4.50;;;;;;;2.20;55.80;102352.16;10309629;28;20089;-73
2022/03/19 04:54:16;;;;;;;8.20;3.85;;;;;;;2.15;56.02;102344.34;10310448;28;20054;-74
2022/03/19 04:59:18;;;;;;;11.85;4.60;;;;;;;1.97;56.01;102349.25;10304807;28;20085;-75
2022/03/19 05:04:39;;;;;;;10.82;4.88;;;;;;;1.89;57.12;102347.44;10325209;28;20054;-75
2022/03/19 05:15:01;;;;;;;10.25;4.50;;;;;;;2.00;56.96;102359.63;10322770;28;20065;-76
2022/03/19 05:20:03;;;;;;;11.57;4.70;;;;;;;2.01;56.66;102351.03;10309090;28;20803;-75
2022/03/19 05:25:06;;;;;;;10.35;4.63;;;;;;;1.95;56.84;102353.53;10292062;28;20512;-74
2022/03/19 05:30:08;;;;;;;11.20;4.43;;;;;;;1.87;57.09;102362.88;10309711;28;20046;-74
2022/03/19 05:35:10;;;;;;;11.52;4.72;;;;;;;1.78;57.15;102361.91;10308798;28;20504;-73
2022/03/19 05:40:12;;;;;;;10.15;4.85;;;;;;;1.77;57.19;102362.72;10309082;28;20551;-74
2022/03/19 05:45:15;;;;;;;12.25;5.22;;;;;;;1.77;57.13;102365.31;10291785;28;20453;-73
2022/03/19 05:50:17;;;;;;;9.05;4.70;;;;;;;1.81;57.30;102357.63;10307646;28;20062;-73
2022/03/19 05:55:19;;;;;;;13.13;5.45;;;;;;;1.93;57.35;102356.97;10308618;28;20160;-73
2022/03/19 06:00:21;;;;;;;13.25;6.20;;;;;;;2.03;57.27;102354.50;10309051;28;20057;-73
2022/03/19 06:05:23;;;;;;;18.10;7.57;;;;;;;2.14;57.23;102355.53;10309410;28;20149;-75
2022/03/19 06:10:25;;;;;;;19.33;7.93;;;;;;;2.25;56.82;102360.84;10293590;28;20144;-74
2022/03/19 06:15:26;;;;;;;13.30;6.15;;;;;;;2.38;56.88;102354.97;10312960;28;20085;-75
2022/03/19 06:20:28;;;;;;;13.57;6.35;;;;;;;2.46;56.72;102360.25;10310506;28;20120;-75
2022/03/19 06:25:30;;;;;;;13.98;6.18;;;;;;;2.60;56.82;102356.94;10307571;28;20050;-75
2022/03/19 06:30:37;;;;;;;11.55;5.32;;;;;;;2.73;56.74;102355.34;10289860;28;20559;-75
2022/03/19 06:41:01;;;;;;;10.85;5.65;;;;;;;2.82;56.68;102353.75;10306601;28;21037;-75
2022/03/19 06:46:04;;;;;;;19.13;6.45;;;;;;;2.99;56.75;102343.56;10306952;28;20129;-75
2022/03/19 06:51:05;;;;;;;14.05;5.60;;;;;;;3.20;56.85;102354.09;10304532;28;20090;-75
2022/03/19 06:56:07;;;;;;;12.57;5.63;;;;;;;3.43;56.26;102356.88;10305507;28;20125;-75
2022/03/19 07:01:15;;;;;;;13.70;6.38;;;;;;;3.58;56.07;102363.03;10305254;28;20062;-75
2022/03/19 07:06:18;;;;;;;13.70;6.00;;;;;;;3.75;56.19;102353.69;10305418;28;20055;-75
2022/03/19 07:11:40;;;;;;;10.57;5.40;;;;;;;4.01;56.29;102369.41;10306527;28;20068;-75
2022/03/19 07:16:42;;;;;;;26.90;13.05;;;;;;;4.26;55.72;102360.91;10305602;28;20042;-75
2022/03/19 07:21:44;;;;;;;23.75;14.65;;;;;;;4.47;55.53;102367.91;10306027;28;20420;-75
2022/03/19 07:26:45;;;;;;;15.95;8.38;;;;;;;4.60;55.19;102357.59;10306596;28;20136;-75
2022/03/19 07:31:47;;;;;;;15.38;6.80;;;;;;;4.68;55.21;102352.41;10306879;28;20086;-75
2022/03/19 07:36:49;;;;;;;14.63;6.40;;;;;;;4.89;55.03;102349.00;10288817;28;20061;-76
2022/03/19 07:41:52;;;;;;;13.02;6.57;;;;;;;5.02;55.02;102349.06;10306521;28;20055;-76
2022/03/19 07:46:54;;;;;;;16.20;6.93;;;;;;;5.21;54.82;102343.00;10304994;28;20508;-75
2022/03/19 07:51:56;;;;;;;14.45;6.38;;;;;;;5.81;54.26;102339.50;10303683;28;20054;-76
2022/03/19 07:56:58;;;;;;;20.42;7.00;;;;;;;6.34;53.08;102335.03;10305082;28;20477;-75
2022/03/19 08:02:00;;;;;;;19.50;6.88;;;;;;;7.08;51.37;102333.75;10290657;28;20144;-75
2022/03/19 08:07:02;;;;;;;14.27;6.28;;;;;;;7.61;50.44;102326.31;10312235;28;20097;-75
2022/03/19 08:12:06;;;;;;;17.13;6.82;;;;;;;7.96;49.23;102319.00;10311057;28;20133;-75
2022/03/19 08:17:07;;;;;;;13.00;7.00;;;;;;;8.43;48.26;102307.16;10292917;28;20141;-73
2022/03/19 08:22:10;;;;;;;15.85;6.43;;;;;;;8.64;47.55;102302.53;10310991;28;20052;-73
2022/03/19 08:27:12;;;;;;;14.30;5.95;;;;;;;9.01;46.95;102299.38;10310653;28;20129;-73
2022/03/19 08:32:14;;;;;;;15.02;6.30;;;;;;;8.98;46.27;102300.25;10310259;28;20500;-73
2022/03/19 08:37:15;;;;;;;15.32;6.30;;;;;;;8.69;46.47;102292.00;10290111;28;20129;-73
2022/03/19 08:42:17;;;;;;;10.50;5.93;;;;;;;8.97;45.79;102288.13;10309764;28;20471;-73
2022/03/19 08:47:19;;;;;;;17.30;5.82;;;;;;;9.26;45.08;102278.03;10309134;28;20101;-73
2022/03/19 08:52:21;;;;;;;13.25;6.13;;;;;;;9.55;44.34;102281.00;10303568;28;20054;-73
2022/03/19 08:57:23;;;;;;;12.32;5.72;;;;;;;9.23;43.82;102265.06;10292044;28;20133;-73
2022/03/19 09:02:25;;;;;;;14.73;5.95;;;;;;;9.49;43.77;102264.56;10307998;28;20089;-73
2022/03/19 09:07:27;;;;;;;13.48;6.30;;;;;;;9.45;43.44;102262.91;10295784;28;20061;-73
2022/03/19 09:12:29;;;;;;;15.35;6.38;;;;;;;9.82;43.59;102260.50;10298482;28;20141;-74
2022/03/19 09:17:31;;;;;;;10.65;5.85;;;;;;;10.01;42.86;102249.63;10305951;28;20591;-74
2022/03/19 09:22:33;;;;;;;11.10;5.78;;;;;;;10.31;42.56;102245.50;10295086;28;20058;-74
2022/03/19 09:27:39;;;;;;;12.20;5.35;;;;;;;10.50;42.13;102231.97;10283786;28;20050;-73
2022/03/19 09:32:41;;;;;;;11.15;5.53;;;;;;;10.52;41.77;102233.72;10285867;28;20077;-74
2022/03/19 09:37:43;;;;;;;10.05;5.05;;;;;;;10.50;41.53;102225.91;10305989;28;20113;-74
2022/03/19 09:42:54;;;;;;;12.38;5.32;;;;;;;10.25;40.79;102227.34;10305240;28;20423;-73
2022/03/19 09:47:56;;;;;;;14.05;5.85;;;;;;;10.05;41.15;102226.91;10305114;28;20042;-74
2022/03/19 09:52:58;;;;;;;12.30;5.10;;;;;;;10.43;40.92;102209.47;10305660;28;20194;-73
2022/03/19 09:58:01;;;;;;;11.30;5.20;;;;;;;10.41;40.62;102202.56;10304630;28;20048;-73
2022/03/19 10:03:08;;;;;;;11.05;4.78;;;;;;;10.49;40.10;102203.25;10306140;28;20062;-74
2022/03/19 10:13:30;;;;;;;13.73;4.63;;;;;;;10.79;39.82;102181.56;10305661;28;20141;-73
2022/03/19 10:18:32;;;;;;;9.32;4.07;;;;;;;10.32;37.79;102179.22;10302966;28;20137;-76
2022/03/19 10:23:36;;;;;;;10.05;3.83;;;;;;;10.25;38.29;102168.06;10305277;28;20064;-77
2022/03/19 10:28:38;;;;;;;8.02;3.20;;;;;;;10.47;36.20;102163.16;10301748;28;20072;-76
2022/03/19 10:40:04;;;;;;;8.80;3.05;;;;;;;10.46;34.45;102130.91;10305596;28;20030;-78
2022/03/19 10:45:11;;;;;;;8.32;3.47;;;;;;;10.86;35.56;102140.38;10288522;28;20068;-78
2022/03/19 10:50:21;;;;;;;6.85;3.28;;;;;;;11.10;34.82;102124.06;10303479;28;20137;-78
2022/03/19 10:55:24;;;;;;;8.50;3.80;;;;;;;10.56;35.09;102109.78;10304691;28;20905;-78
2022/03/19 11:00:28;;;;;;;7.55;3.40;;;;;;;10.98;35.21;102092.94;10304801;28;20082;-78
2022/03/19 11:05:35;;;;;;;7.15;3.10;;;;;;;10.44;34.12;102093.47;10317261;28;20633;-78
2022/03/19 11:10:38;;;;;;;9.18;3.20;;;;;;;10.52;35.89;102080.22;10303244;28;20145;-78
2022/03/19 11:15:40;;;;;;;6.60;3.30;;;;;;;10.60;34.95;102069.53;10283559;28;20054;-78
2022/03/19 11:20:43;;;;;;;11.23;3.80;;;;;;;10.47;35.08;102055.91;10302767;28;20140;-78
2022/03/19 11:26:04;;;;;;;7.32;3.20;;;;;;;10.57;33.62;102040.81;10303051;28;20144;-78
2022/03/19 11:31:10;;;;;;;7.60;3.25;;;;;;;10.50;34.16;102030.53;10303802;28;20060;-78
2022/03/19 11:36:13;;;;;;;6.22;2.95;;;;;;;10.69;33.56;102032.66;10301055;28;20109;-77
2022/03/19 11:41:22;;;;;;;7.15;2.95;;;;;;;11.03;33.37;102013.34;10308702;28;20054;-78
2022/03/19 11:46:24;;;;;;;11.07;3.30;;;;;;;10.94;32.92;101992.69;10307573;28;20058;-78
2022/03/19 11:51:28;;;;;;;6.85;2.88;;;;;;;11.10;31.62;101993.97;10287995;28;20081;-77
2022/03/19 11:56:43;;;;;;;11.73;2.90;;;;;;;10.96;29.65;101990.00;10310299;28;20057;-77
2022/03/19 12:01:58;;;;;;;5.63;2.40;;;;;;;11.18;30.69;101963.19;10310746;28;20081;-77
2022/03/19 12:07:02;;;;;;;5.65;2.53;;;;;;;11.32;30.30;101953.16;10309607;28;20050;-77
2022/03/19 12:12:15;;;;;;;6.93;2.45;;;;;;;11.45;28.33;101934.44;10308284;28;20133;-77
2022/03/19 12:17:30;;;;;;;8.43;4.63;;;;;;;11.23;28.49;101919.38;10306502;28;20053;-77
2022/03/19 12:22:41;;;;;;;3.30;1.50;;;;;;;11.55;27.69;101912.25;10307063;28;20054;-77
2022/03/19 12:27:57;;;;;;;5.57;1.70;;;;;;;11.47;26.09;101904.66;10308963;28;20046;-77
2022/03/19 12:32:59;;;;;;;5.85;1.90;;;;;;;11.58;27.03;101904.31;10291670;28;20263;-77
2022/03/19 12:38:00;;;;;;;5.28;2.13;;;;;;;11.72;28.26;101889.00;10301941;28;20598;-77
2022/03/19 12:43:02;;;;;;;5.07;1.88;;;;;;;11.46;27.55;101870.66;10289732;28;20581;-77
2022/03/19 12:48:10;;;;;;;5.18;2.00;;;;;;;11.40;28.23;101876.09;10307539;28;20086;-76
2022/03/19 12:53:12;;;;;;;4.80;1.70;;;;;;;11.54;28.24;101861.59;10308586;28;20174;-77
2022/03/19 12:58:14;;;;;;;4.97;1.80;;;;;;;11.65;28.42;101853.38;10310082;28;20152;-78
2022/03/19 13:03:29;;;;;;;5.25;1.60;;;;;;;11.18;26.33;101850.56;10307445;28;20727;-78
2022/03/19 13:08:49;;;;;;;5.28;1.60;;;;;;;11.23;25.79;101835.56;10308774;28;20101;-78
2022/03/19 13:13:52;;;;;;;4.20;1.48;;;;;;;11.30;26.08;101836.22;10308809;28;20145;-77
2022/03/19 13:19:05;;;;;;;4.15;1.50;;;;;;;11.50;25.18;101840.81;10307477;28;20720;-77
2022/03/19 13:24:12;;;;;;;2.15;1.20;;;;;;;11.58;23.95;101807.34;10306543;28;20116;-77
2022/03/19 13:29:18;;;;;;;5.20;1.38;;;;;;;11.46;23.63;101803.38;10300383;28;20046;-78
2022/03/19 13:34:24;;;;;;;5.90;1.38;;;;;;;11.81;26.00;101800.41;10302040;28;20718;-78
2022/03/19 13:39:29;;;;;;;4.50;1.40;;;;;;;11.93;24.88;101788.59;10306645;28;20152;-78
2022/03/19 13:44:37;;;;;;;5.82;1.65;;;;;;;11.92;25.07;101792.16;10300151;28;20065;-78
2022/03/19 13:49:41;;;;;;;3.80;1.40;;;;;;;11.94;25.76;101775.47;10303158;28;20141;-77
2022/03/19 13:54:45;;;;;;;5.20;1.65;;;;;;;11.68;24.87;101777.28;10287875;28;20117;-77
2022/03/19 13:59:47;;;;;;;3.17;1.27;;;;;;;11.53;25.10;101764.72;10280879;28;20472;-78
2022/03/19 14:04:49;;;;;;;4.43;1.38;;;;;;;11.40;25.06;101755.59;10270917;28;20086;-77
2022/03/19 14:09:50;;;;;;;5.22;1.60;;;;;;;11.30;24.98;101750.66;10284992;28;20134;-77
2022/03/19 14:14:52;;;;;;;4.60;1.33;;;;;;;11.20;23.99;101744.00;10285640;28;20051;-77
2022/03/19 14:19:54;;;;;;;5.38;1.48;;;;;;;11.07;24.07;101755.78;10278351;28;21143;-77
2022/03/19 14:24:59;;;;;;;4.97;1.63;;;;;;;10.75;22.76;101755.06;10268035;28;20141;-77
2022/03/19 14:30:03;;;;;;;5.45;1.65;;;;;;;11.10;24.70;101755.69;10286152;28;20132;-78
2022/03/19 14:35:06;;;;;;;5.00;1.80;;;;;;;10.81;24.41;101754.88;10283700;28;20228;-77
2022/03/19 14:40:09;;;;;;;6.25;2.00;;;;;;;11.01;25.37;101735.00;10269588;28;21096;-78
2022/03/19 14:45:11;;;;;;;8.10;1.65;;;;;;;10.77;26.07;101727.09;10270587;28;20152;-78
2022/03/19 14:50:13;;;;;;;6.18;1.50;;;;;;;10.55;25.59;101706.00;10281772;28;20089;-77
2022/03/19 14:55:15;;;;;;;7.55;1.75;;;;;;;11.24;25.92;101702.84;10279168;28;20053;-77
2022/03/19 15:00:18;;;;;;;3.95;1.80;;;;;;;11.52;26.07;101700.13;10275640;28;20464;-77
2022/03/19 15:05:20;;;;;;;6.28;1.63;;;;;;;11.26;26.08;101685.31;10261950;28;20142;-77
2022/03/19 15:10:23;;;;;;;6.75;1.92;;;;;;;11.23;26.32;101707.22;10289208;28;20153;-77
2022/03/19 15:15:25;;;;;;;4.72;1.80;;;;;;;11.32;27.37;101695.56;10277778;28;20088;-77
2022/03/19 15:20:27;;;;;;;6.90;1.98;;;;;;;11.34;29.18;101698.16;10261790;28;20134;-77
2022/03/19 15:25:28;;;;;;;5.80;1.80;;;;;;;10.84;29.44;101705.06;10277048;28;20054;-77
2022/03/19 15:30:30;;;;;;;8.68;2.05;;;;;;;10.44;30.07;101701.09;10285120;28;20560;-77
2022/03/19 15:35:32;;;;;;;6.07;2.00;;;;;;;10.06;29.83;101695.31;10269984;28;20066;-78
2022/03/19 15:40:34;;;;;;;6.53;2.10;;;;;;;10.46;29.06;101686.22;10282160;28;20503;-77
2022/03/19 15:45:39;;;;;;;5.53;1.60;;;;;;;10.59;27.59;101665.75;10284246;28;20145;-77
2022/03/19 15:50:42;;;;;;;5.68;1.73;;;;;;;10.66;28.17;101656.81;10255620;28;20047;-77
2022/03/19 15:55:45;;;;;;;7.15;1.88;;;;;;;9.94;29.49;101687.84;10285534;28;20554;-77
2022/03/19 16:00:47;;;;;;;6.90;1.80;;;;;;;8.82;29.46;101716.94;10293670;28;20550;-78
2022/03/19 16:05:49;;;;;;;6.47;1.90;;;;;;;8.94;31.18;101703.59;10298957;28;20145;-77
2022/03/19 16:10:50;;;;;;;5.85;1.70;;;;;;;8.86;31.89;101721.19;10306194;28;20154;-77
2022/03/19 16:15:52;;;;;;;7.20;2.10;;;;;;;9.07;32.69;101697.19;10302392;28;20571;-77
2022/03/19 16:20:54;;;;;;;7.10;2.10;;;;;;;9.07;32.29;101715.47;10302423;28;20500;-78
2022/03/19 16:25:56;;;;;;;7.35;1.60;;;;;;;9.23;32.77;101697.66;10295169;28;20358;-82
2022/03/19 16:30:58;;;;;;;4.82;1.73;;;;;;;8.78;33.66;101703.13;10316669;28;20105;-83
2022/03/19 16:36:02;;;;;;;7.22;1.85;;;;;;;8.64;34.24;101696.53;10316792;28;21639;-83
2022/03/19 16:41:04;;;;;;;8.40;2.00;;;;;;;8.59;34.45;101685.34;10315598;28;20101;-83
2022/03/19 16:46:07;;;;;;;5.25;1.70;;;;;;;8.39;34.99;101692.78;10316975;28;20081;-83
2022/03/19 16:51:09;;;;;;;6.18;2.00;;;;;;;8.35;35.36;101684.16;10315818;28;20070;-83
2022/03/19 16:56:14;;;;;;;6.10;1.90;;;;;;;8.60;35.51;101674.03;10314633;28;20085;-84
2022/03/19 17:01:17;;;;;;;6.07;1.70;;;;;;;8.85;35.30;101680.38;10315030;28;20157;-83
2022/03/19 17:06:25;;;;;;;5.55;2.05;;;;;;;8.42;36.04;101683.16;10295517;28;20064;-83
2022/03/19 17:11:28;;;;;;;6.20;2.35;;;;;;;8.08;36.89;101682.13;10310066;28;20069;-83
2022/03/19 17:16:31;;;;;;;7.75;2.38;;;;;;;7.77;37.33;101689.75;10299102;28;20138;-83
2022/03/19 17:21:33;;;;;;;9.15;2.28;;;;;;;7.65;37.38;101678.72;10292188;28;20124;-82
2022/03/19 17:26:37;;;;;;;7.72;2.10;;;;;;;7.48;38.25;101691.22;10295639;28;20425;-83
2022/03/19 17:31:41;;;;;;;11.77;3.28;;;;;;;7.17;38.76;101680.50;10311779;28;20160;-83
2022/03/19 17:36:43;;;;;;;7.50;2.45;;;;;;;7.18;39.03;101680.47;10309565;28;20050;-83
2022/03/19 17:41:45;;;;;;;7.95;2.30;;;;;;;7.28;38.88;101688.13;10299761;28;20137;-83
2022/03/19 17:46:56;;;;;;;6.40;2.30;;;;;;;7.29;38.82;101689.81;10297545;28;20065;-83
2022/03/19 17:51:58;;;;;;;5.90;2.22;;;;;;;7.34;39.01;101681.06;10302709;28;20520;-83
2022/03/19 17:57:00;;;;;;;7.43;2.50;;;;;;;7.34;39.00;101675.88;10307314;28;20595;-83
2022/03/19 18:02:10;;;;;;;5.90;2.75;;;;;;;7.24;39.50;101669.13;10301675;28;20081;-83
2022/03/19 18:07:12;;;;;;;9.13;3.65;;;;;;;7.16;39.71;101677.03;10287129;28;20050;-82
2022/03/19 18:12:14;;;;;;;8.50;3.42;;;;;;;7.10;40.25;101671.13;10300831;28;20153;-82
2022/03/19 18:17:16;;;;;;;10.55;3.92;;;;;;;7.03;40.66;101680.75;10289640;28;20060;-82
2022/03/19 18:22:18;;;;;;;9.25;3.83;;;;;;;7.05;40.67;101680.72;10304667;28;20052;-83
2022/03/19 18:27:20;;;;;;;28.27;12.65;;;;;;;7.03;40.72;101687.72;10299833;28;20132;-83
2022/03/19 18:32:22;;;;;;;13.90;7.55;;;;;;;6.80;41.92;101688.09;10295768;28;20139;-83
2022/03/19 18:37:25;;;;;;;10.68;5.60;;;;;;;6.53;44.00;101691.13;10305448;28;20097;-82
2022/03/19 18:42:27;;;;;;;9.38;5.97;;;;;;;6.54;43.98;101690.25;10286751;28;20065;-82
2022/03/19 18:47:28;;;;;;;12.57;6.10;;;;;;;6.37;44.75;101691.41;10303549;28;20568;-82
2022/03/19 18:52:30;;;;;;;10.68;7.47;;;;;;;6.11;45.55;101683.91;10291328;28;20144;-82
2022/03/19 18:57:32;;;;;;;15.93;8.95;;;;;;;5.97;45.99;101681.50;10310647;28;20105;-82
2022/03/19 19:02:35;;;;;;;14.82;8.32;;;;;;;5.91;46.63;101686.78;10309117;28;20081;-82
2022/03/19 19:07:37;;;;;;;16.75;10.05;;;;;;;5.99;46.77;101676.28;10277661;28;20050;-82
2022/03/19 19:12:39;;;;;;;14.85;10.30;;;;;;;6.03;46.88;101672.78;10310295;28;20441;-82
2022/03/19 19:17:41;;;;;;;18.83;10.48;;;;;;;5.99;47.19;101671.97;10312234;28;20153;-82
2022/03/19 19:22:42;;;;;;;18.33;11.38;;;;;;;6.04;47.05;101675.34;10309761;28;20136;-82
2022/03/19 19:27:44;;;;;;;15.90;11.30;;;;;;;5.88;47.91;101667.81;10310914;28;20137;-82
2022/03/19 19:32:46;;;;;;;18.13;12.55;;;;;;;6.09;46.85;101659.69;10311649;28;20136;-82
2022/03/19 19:38:27;;;;;;;19.15;12.80;;;;;;;6.11;47.29;101656.22;10294578;28;20137;-82
2022/03/19 19:43:29;;;;;;;18.17;12.13;;;;;;;6.28;46.39;101656.00;10304182;28;20510;-82
2022/03/19 19:48:30;;;;;;;17.30;12.10;;;;;;;6.21;46.76;101649.13;10294305;28;20585;-82
2022/03/19 19:53:32;;;;;;;19.65;13.13;;;;;;;6.12;46.67;101641.50;10312235;28;20086;-82
2022/03/19 19:58:37;;;;;;;18.05;13.35;;;;;;;6.12;46.56;101639.72;10296890;28;20062;-82
2022/03/19 20:03:39;;;;;;;19.27;13.95;;;;;;;5.98;46.55;101636.47;10313732;28;20050;-82
2022/03/19 20:08:41;;;;;;;24.15;14.73;;;;;;;5.82;46.98;101626.34;10315355;28;20054;-82
2022/03/19 20:13:44;;;;;;;22.15;15.13;;;;;;;5.72;47.08;101628.19;10314679;28;20050;-82
2022/03/19 20:18:46;;;;;;;24.60;15.07;;;;;;;5.66;47.39;101615.28;10314963;28;20132;-82
2022/03/19 20:23:48;;;;;;;22.42;15.77;;;;;;;5.77;47.24;101608.22;10313923;28;20069;-82
2022/03/19 20:28:50;;;;;;;23.08;15.82;;;;;;;5.73;47.22;101598.75;10309896;28;20625;-82
2022/03/19 20:33:53;;;;;;;24.38;16.88;;;;;;;5.67;46.90;101596.25;10306086;28;20335;-82
2022/03/19 20:38:55;;;;;;;25.25;16.38;;;;;;;5.59;47.04;101592.91;10309476;28;20053;-82
2022/03/19 20:43:57;;;;;;;31.42;17.05;;;;;;;5.55;46.97;101592.06;10295119;28;20050;-82
2022/03/19 20:48:59;;;;;;;21.25;16.80;;;;;;;5.37;47.39;101584.50;10314021;28;20136;-83
2022/03/19 20:54:01;;;;;;;22.15;17.65;;;;;;;5.37;47.13;101583.66;10293968;28;20435;-83
2022/03/19 20:59:03;;;;;;;23.85;17.63;;;;;;;5.31;47.02;101582.00;10302894;28;20137;-82
2022/03/19 21:04:05;;;;;;;24.60;17.63;;;;;;;5.33;46.78;101576.81;10292702;28;20054;-82
2022/03/19 21:09:07;;;;;;;25.45;18.50;;;;;;;5.28;46.89;101579.44;10316404;28;20073;-82
2022/03/19 21:14:12;;;;;;;24.15;17.13;;;;;;;5.22;46.67;101570.88;10315225;28;20400;-82
2022/03/19 21:19:15;;;;;;;23.50;17.05;;;;;;;5.22;47.12;101557.91;10315733;28;20133;-82
2022/03/19 21:24:17;;;;;;;23.08;17.50;;;;;;;5.30;46.57;101550.88;10315388;28;20088;-82
2022/03/19 21:29:20;;;;;;;23.23;17.30;;;;;;;5.18;46.28;101541.53;10298113;28;20051;-82
2022/03/19 21:34:22;;;;;;;23.55;16.58;;;;;;;5.16;46.14;101535.50;10297356;28;20120;-82
2022/03/19 21:44:44;;;;;;;20.20;16.23;;;;;;;5.17;45.87;101518.19;10306103;28;20431;-83
2022/03/19 21:49:47;;;;;;;24.30;16.35;;;;;;;5.16;45.67;101506.13;10306646;28;20109;-82
2022/03/19 21:54:49;;;;;;;21.13;16.20;;;;;;;4.93;46.10;101495.16;10295262;28;20133;-82
2022/03/19 21:59:52;;;;;;;23.17;16.50;;;;;;;4.92;46.15;101489.13;10296787;28;20153;-82
2022/03/19 22:04:54;;;;;;;24.98;16.92;;;;;;;4.86;45.76;101481.41;10314228;28;20109;-82
2022/03/19 22:09:56;;;;;;;23.52;15.93;;;;;;;4.79;46.03;101482.38;10313221;28;20046;-82
2022/03/19 22:14:57;;;;;;;21.92;16.67;;;;;;;4.79;46.02;101474.59;10295911;28;20197;-82
2022/03/19 22:20:11;;;;;;;24.27;15.85;;;;;;;4.79;45.65;101465.94;10312215;28;20138;-82
2022/03/19 22:25:15;;;;;;;25.33;16.02;;;;;;;4.76;45.71;101463.41;10312694;28;20472;-82
2022/03/19 22:30:17;;;;;;;22.08;16.98;;;;;;;4.70;46.14;101454.81;10294231;28;20157;-81
2022/03/19 22:35:19;;;;;;;22.45;16.85;;;;;;;4.64;45.82;101454.03;10311563;28;20145;-81
2022/03/19 22:40:21;;;;;;;24.73;16.73;;;;;;;4.44;45.86;101453.38;10310697;28;20061;-82
2022/03/19 22:45:23;;;;;;;24.35;17.15;;;;;;;4.48;46.12;101440.38;10310809;28;20054;-81
2022/03/19 22:50:28;;;;;;;23.70;17.55;;;;;;;4.43;45.87;101434.38;10311485;28;20046;-81
2022/03/19 22:55:32;;;;;;;24.08;17.00;;;;;;;4.34;46.26;101423.28;10306958;28;20057;-82
2022/03/19 23:00:45;;;;;;;27.58;17.35;;;;;;;4.32;46.22;101409.50;10293159;28;20101;-82
2022/03/19 23:05:47;;;;;;;22.45;17.00;;;;;;;4.29;46.02;101404.34;10310917;28;20116;-82
2022/03/19 23:16:09;;;;;;;25.58;18.20;;;;;;;4.08;47.39;101399.38;10309839;28;20145;-82
2022/03/19 23:21:11;;;;;;;25.88;17.70;;;;;;;3.97;47.67;101396.91;10309278;28;20047;-81
2022/03/19 23:26:14;;;;;;;29.02;18.75;;;;;;;3.90;47.56;101390.09;10302228;28;20105;-81
2022/03/19 23:31:17;;;;;;;25.42;18.02;;;;;;;3.73;48.06;101382.44;10291746;28;20137;-81
2022/03/19 23:36:19;;;;;;;28.60;18.40;;;;;;;3.66;47.72;101379.94;10318763;28;20156;-82
2022/03/19 23:41:21;;;;;;;25.35;18.15;;;;;;;3.54;48.16;101375.69;10300964;28;20050;-81
2022/03/19 23:46:23;;;;;;;26.48;18.40;;;;;;;3.61;47.93;101368.75;10301517;28;20142;-82
2022/03/19 23:51:25;;;;;;;25.42;18.17;;;;;;;3.59;47.99;101360.13;10318106;28;20492;-81